sensor_id;sensor_type;location;lat;lon;timestamp;temperature;humidity
23283;DHT22;11810;51.178;3.878;2023-04-24T00:01:48;9.70;99.90
23283;DHT22;11810;51.178;3.878;2023-04-24T00:04:14;9.60;99.90
23283;DHT22;11810;51.178;3.878;2023-04-24T00:06:42;9.50;99.90
23283;DHT22;11810;51.178;3.878;2023-04-24T00:09:11;9.50;99.90
23283;DHT22;11810;51.178;3.878;2023-04-24T00:11:37;9.50;99.90
23283;DHT22;11810;51.178;3.878;2023-04-24T00:14:03;9.50;99.90
23283;DHT22;11810;51.178;3.878;2023-04-24T00:16:29;9.50;99.90
23283;DHT22;11810;51.178;3.878;2023-04-24T00:18:55;9.50;99.90
23283;DHT22;11810;51.178;3.878;2023-04-24T00:21:21;9.50;99.90
23283;DHT22;11810;51.178;3.878;2023-04-24T00:23:51;9.50;99.90
23283;DHT22;11810;51.178;3.878;2023-04-24T00:26:17;9.50;99.90
23283;DHT22;11810;51.178;3.878;2023-04-24T00:28:43;9.60;99.90
23283;DHT22;11810;51.178;3.878;2023-04-24T00:31:09;9.50;99.90
23283;DHT22;11810;51.178;3.878;2023-04-24T00:33:35;9.50;99.90
23283;DHT22;11810;51.178;3.878;2023-04-24T00:36:01;9.50;99.90
23283;DHT22;11810;51.178;3.878;2023-04-24T00:38:27;9.40;99.90
23283;DHT22;11810;51.178;3.878;2023-04-24T00:40:53;9.40;99.90
23283;DHT22;11810;51.178;3.878;2023-04-24T00:43:19;9.40;99.90
23283;DHT22;11810;51.178;3.878;2023-04-24T00:45:46;9.40;99.90
23283;DHT22;11810;51.178;3.878;2023-04-24T00:48:12;9.50;99.90
23283;DHT22;11810;51.178;3.878;2023-04-24T00:50:38;9.50;99.90
23283;DHT22;11810;51.178;3.878;2023-04-24T00:53:04;9.40;99.90
23283;DHT22;11810;51.178;3.878;2023-04-24T00:55:31;9.40;99.90
23283;DHT22;11810;51.178;3.878;2023-04-24T00:57:57;9.40;99.90
23283;DHT22;11810;51.178;3.878;2023-04-24T01:00:24;9.50;99.90
23283;DHT22;11810;51.178;3.878;2023-04-24T01:02:51;9.40;99.90
23283;DHT22;11810;51.178;3.878;2023-04-24T01:05:18;9.40;99.90
23283;DHT22;11810;51.178;3.878;2023-04-24T01:07:46;9.40;99.90
23283;DHT22;11810;51.178;3.878;2023-04-24T01:10:14;9.40;99.90
23283;DHT22;11810;51.178;3.878;2023-04-24T01:12:41;9.40;99.90
23283;DHT22;11810;51.178;3.878;2023-04-24T01:15:07;9.50;99.90
23283;DHT22;11810;51.178;3.878;2023-04-24T01:17:34;9.50;99.90
23283;DHT22;11810;51.178;3.878;2023-04-24T01:20:00;9.50;99.90
23283;DHT22;11810;51.178;3.878;2023-04-24T01:22:27;9.50;99.90
23283;DHT22;11810;51.178;3.878;2023-04-24T01:24:53;9.40;99.90
23283;DHT22;11810;51.178;3.878;2023-04-24T01:29:16;9.50;99.90
23283;DHT22;11810;51.178;3.878;2023-04-24T01:31:42;9.50;99.90
23283;DHT22;11810;51.178;3.878;2023-04-24T01:34:08;9.50;99.90
23283;DHT22;11810;51.178;3.878;2023-04-24T01:36:35;9.60;99.90
23283;DHT22;11810;51.178;3.878;2023-04-24T01:39:02;9.50;99.90
23283;DHT22;11810;51.178;3.878;2023-04-24T01:41:29;9.40;99.90
23283;DHT22;11810;51.178;3.878;2023-04-24T01:43:57;9.40;99.90
23283;DHT22;11810;51.178;3.878;2023-04-24T01:46:24;9.20;99.90
23283;DHT22;11810;51.178;3.878;2023-04-24T01:48:51;9.20;99.90
23283;DHT22;11810;51.178;3.878;2023-04-24T01:51:17;9.30;99.90
23283;DHT22;11810;51.178;3.878;2023-04-24T01:53:43;9.20;99.90
23283;DHT22;11810;51.178;3.878;2023-04-24T01:56:09;9.10;99.90
23283;DHT22;11810;51.178;3.878;2023-04-24T01:58:36;9.10;99.90
23283;DHT22;11810;51.178;3.878;2023-04-24T02:01:02;9.10;99.90
23283;DHT22;11810;51.178;3.878;2023-04-24T02:03:28;9.10;99.90
23283;DHT22;11810;51.178;3.878;2023-04-24T02:05:54;9.10;99.90
23283;DHT22;11810;51.178;3.878;2023-04-24T02:08:20;9.00;99.90
23283;DHT22;11810;51.178;3.878;2023-04-24T02:10:46;9.00;99.90
23283;DHT22;11810;51.178;3.878;2023-04-24T02:13:11;8.90;99.90
23283;DHT22;11810;51.178;3.878;2023-04-24T02:15:37;9.00;99.90
23283;DHT22;11810;51.178;3.878;2023-04-24T02:18:03;9.00;99.90
23283;DHT22;11810;51.178;3.878;2023-04-24T02:20:29;9.10;99.90
23283;DHT22;11810;51.178;3.878;2023-04-24T02:22:55;9.10;99.90
23283;DHT22;11810;51.178;3.878;2023-04-24T02:25:22;9.10;99.90
23283;DHT22;11810;51.178;3.878;2023-04-24T02:27:47;9.10;99.90
23283;DHT22;11810;51.178;3.878;2023-04-24T02:30:13;9.10;99.90
23283;DHT22;11810;51.178;3.878;2023-04-24T02:32:39;9.10;99.90
23283;DHT22;11810;51.178;3.878;2023-04-24T02:35:06;9.20;99.90
23283;DHT22;11810;51.178;3.878;2023-04-24T02:37:32;9.20;99.90
23283;DHT22;11810;51.178;3.878;2023-04-24T02:39:58;9.20;99.90
23283;DHT22;11810;51.178;3.878;2023-04-24T02:42:24;9.30;99.90
23283;DHT22;11810;51.178;3.878;2023-04-24T02:44:50;9.40;99.90
23283;DHT22;11810;51.178;3.878;2023-04-24T02:47:17;9.30;99.90
23283;DHT22;11810;51.178;3.878;2023-04-24T02:49:42;9.40;99.90
23283;DHT22;11810;51.178;3.878;2023-04-24T02:52:08;9.30;99.90
23283;DHT22;11810;51.178;3.878;2023-04-24T02:54:34;9.40;99.90
23283;DHT22;11810;51.178;3.878;2023-04-24T02:57:00;9.40;99.90
23283;DHT22;11810;51.178;3.878;2023-04-24T02:59:26;9.40;99.90
23283;DHT22;11810;51.178;3.878;2023-04-24T03:01:54;9.40;99.90
23283;DHT22;11810;51.178;3.878;2023-04-24T03:04:20;9.30;99.90
23283;DHT22;11810;51.178;3.878;2023-04-24T03:06:47;9.20;99.90
23283;DHT22;11810;51.178;3.878;2023-04-24T03:09:13;9.30;99.90
23283;DHT22;11810;51.178;3.878;2023-04-24T03:11:39;9.40;99.90
23283;DHT22;11810;51.178;3.878;2023-04-24T03:14:06;9.40;99.90
23283;DHT22;11810;51.178;3.878;2023-04-24T03:16:32;9.50;99.90
23283;DHT22;11810;51.178;3.878;2023-04-24T03:18:58;9.50;99.90
23283;DHT22;11810;51.178;3.878;2023-04-24T03:21:24;9.50;99.90
23283;DHT22;11810;51.178;3.878;2023-04-24T03:23:50;9.50;99.90
23283;DHT22;11810;51.178;3.878;2023-04-24T03:26:16;9.50;99.90
23283;DHT22;11810;51.178;3.878;2023-04-24T03:28:42;9.40;99.90
23283;DHT22;11810;51.178;3.878;2023-04-24T03:31:08;9.20;99.90
23283;DHT22;11810;51.178;3.878;2023-04-24T03:33:34;9.00;99.90
23283;DHT22;11810;51.178;3.878;2023-04-24T03:35:59;8.90;99.90
23283;DHT22;11810;51.178;3.878;2023-04-24T03:38:25;8.90;99.90
23283;DHT22;11810;51.178;3.878;2023-04-24T03:40:51;9.00;99.90
23283;DHT22;11810;51.178;3.878;2023-04-24T03:43:17;9.00;99.90
23283;DHT22;11810;51.178;3.878;2023-04-24T03:45:43;8.90;99.90
23283;DHT22;11810;51.178;3.878;2023-04-24T03:48:09;8.80;99.90
23283;DHT22;11810;51.178;3.878;2023-04-24T03:50:35;8.80;99.90
23283;DHT22;11810;51.178;3.878;2023-04-24T03:53:01;8.70;99.90
23283;DHT22;11810;51.178;3.878;2023-04-24T03:55:27;8.70;99.90
23283;DHT22;11810;51.178;3.878;2023-04-24T03:57:53;8.80;99.90
23283;DHT22;11810;51.178;3.878;2023-04-24T04:00:18;8.90;99.90
23283;DHT22;11810;51.178;3.878;2023-04-24T04:02:45;8.80;99.90
23283;DHT22;11810;51.178;3.878;2023-04-24T04:05:11;8.80;99.90
23283;DHT22;11810;51.178;3.878;2023-04-24T04:07:36;8.70;99.90
23283;DHT22;11810;51.178;3.878;2023-04-24T04:10:03;8.70;99.90
23283;DHT22;11810;51.178;3.878;2023-04-24T04:12:29;8.70;99.90
23283;DHT22;11810;51.178;3.878;2023-04-24T04:14:55;8.70;99.90
23283;DHT22;11810;51.178;3.878;2023-04-24T04:17:21;8.70;99.90
23283;DHT22;11810;51.178;3.878;2023-04-24T04:19:47;8.60;99.90
23283;DHT22;11810;51.178;3.878;2023-04-24T04:22:13;8.60;99.90
23283;DHT22;11810;51.178;3.878;2023-04-24T04:24:39;8.50;99.90
23283;DHT22;11810;51.178;3.878;2023-04-24T04:27:06;8.50;99.90
23283;DHT22;11810;51.178;3.878;2023-04-24T04:29:33;8.50;99.90
23283;DHT22;11810;51.178;3.878;2023-04-24T04:32:00;8.50;99.90
23283;DHT22;11810;51.178;3.878;2023-04-24T04:34:27;8.50;99.90
23283;DHT22;11810;51.178;3.878;2023-04-24T04:36:52;8.40;99.90
23283;DHT22;11810;51.178;3.878;2023-04-24T04:39:18;8.40;99.90
23283;DHT22;11810;51.178;3.878;2023-04-24T04:41:45;8.40;99.90
23283;DHT22;11810;51.178;3.878;2023-04-24T04:44:14;8.50;99.90
23283;DHT22;11810;51.178;3.878;2023-04-24T04:46:40;8.50;99.90
23283;DHT22;11810;51.178;3.878;2023-04-24T04:49:07;8.50;99.90
23283;DHT22;11810;51.178;3.878;2023-04-24T04:51:34;8.50;99.90
23283;DHT22;11810;51.178;3.878;2023-04-24T04:54:00;8.60;99.90
23283;DHT22;11810;51.178;3.878;2023-04-24T04:56:26;8.50;99.90
23283;DHT22;11810;51.178;3.878;2023-04-24T04:58:52;8.50;99.90
23283;DHT22;11810;51.178;3.878;2023-04-24T05:01:18;8.60;99.90
23283;DHT22;11810;51.178;3.878;2023-04-24T05:03:44;8.60;99.90
23283;DHT22;11810;51.178;3.878;2023-04-24T05:06:10;8.70;99.90
23283;DHT22;11810;51.178;3.878;2023-04-24T05:08:36;8.80;99.90
23283;DHT22;11810;51.178;3.878;2023-04-24T05:11:02;8.80;99.90
23283;DHT22;11810;51.178;3.878;2023-04-24T05:13:28;8.80;99.90
23283;DHT22;11810;51.178;3.878;2023-04-24T05:15:54;8.80;99.90
23283;DHT22;11810;51.178;3.878;2023-04-24T05:18:20;8.90;99.90
23283;DHT22;11810;51.178;3.878;2023-04-24T05:20:46;8.80;99.90
23283;DHT22;11810;51.178;3.878;2023-04-24T05:23:12;8.70;99.90
23283;DHT22;11810;51.178;3.878;2023-04-24T05:25:38;8.70;99.90
23283;DHT22;11810;51.178;3.878;2023-04-24T05:28:05;8.70;99.90
23283;DHT22;11810;51.178;3.878;2023-04-24T05:30:31;8.70;99.90
23283;DHT22;11810;51.178;3.878;2023-04-24T05:32:57;8.70;99.90
23283;DHT22;11810;51.178;3.878;2023-04-24T05:35:23;8.70;99.90
23283;DHT22;11810;51.178;3.878;2023-04-24T05:37:49;8.70;99.90
23283;DHT22;11810;51.178;3.878;2023-04-24T05:40:15;8.70;99.90
23283;DHT22;11810;51.178;3.878;2023-04-24T05:42:41;8.70;99.90
23283;DHT22;11810;51.178;3.878;2023-04-24T05:45:07;8.70;99.90
23283;DHT22;11810;51.178;3.878;2023-04-24T05:47:33;8.70;99.90
23283;DHT22;11810;51.178;3.878;2023-04-24T05:49:59;8.80;99.90
23283;DHT22;11810;51.178;3.878;2023-04-24T05:52:25;8.80;99.90
23283;DHT22;11810;51.178;3.878;2023-04-24T05:54:51;8.80;99.90
23283;DHT22;11810;51.178;3.878;2023-04-24T05:57:17;8.80;99.90
23283;DHT22;11810;51.178;3.878;2023-04-24T05:59:43;8.80;99.90
23283;DHT22;11810;51.178;3.878;2023-04-24T06:02:09;8.80;99.90
23283;DHT22;11810;51.178;3.878;2023-04-24T06:04:35;8.90;99.90
23283;DHT22;11810;51.178;3.878;2023-04-24T06:07:01;8.90;99.90
23283;DHT22;11810;51.178;3.878;2023-04-24T06:09:27;8.90;99.90
23283;DHT22;11810;51.178;3.878;2023-04-24T06:11:53;8.90;99.90
23283;DHT22;11810;51.178;3.878;2023-04-24T06:14:19;8.90;99.90
23283;DHT22;11810;51.178;3.878;2023-04-24T06:16:45;8.90;99.90
23283;DHT22;11810;51.178;3.878;2023-04-24T06:19:11;8.90;99.90
23283;DHT22;11810;51.178;3.878;2023-04-24T06:21:37;8.90;99.90
23283;DHT22;11810;51.178;3.878;2023-04-24T06:24:03;9.00;99.90
23283;DHT22;11810;51.178;3.878;2023-04-24T06:26:30;8.90;99.90
23283;DHT22;11810;51.178;3.878;2023-04-24T06:28:56;8.90;99.90
23283;DHT22;11810;51.178;3.878;2023-04-24T06:31:24;9.00;99.90
23283;DHT22;11810;51.178;3.878;2023-04-24T06:33:50;9.00;99.90
23283;DHT22;11810;51.178;3.878;2023-04-24T06:36:16;9.20;99.90
23283;DHT22;11810;51.178;3.878;2023-04-24T06:38:42;9.30;99.90
23283;DHT22;11810;51.178;3.878;2023-04-24T06:41:44;9.30;99.90
23283;DHT22;11810;51.178;3.878;2023-04-24T06:44:10;9.50;99.90
23283;DHT22;11810;51.178;3.878;2023-04-24T06:46:36;9.50;99.90
23283;DHT22;11810;51.178;3.878;2023-04-24T06:49:02;9.70;99.90
23283;DHT22;11810;51.178;3.878;2023-04-24T06:51:28;9.80;99.90
23283;DHT22;11810;51.178;3.878;2023-04-24T06:53:54;9.80;99.90
23283;DHT22;11810;51.178;3.878;2023-04-24T06:56:22;9.90;99.90
23283;DHT22;11810;51.178;3.878;2023-04-24T06:58:48;9.90;99.90
23283;DHT22;11810;51.178;3.878;2023-04-24T07:01:14;9.80;99.90
23283;DHT22;11810;51.178;3.878;2023-04-24T07:03:40;9.80;99.90
23283;DHT22;11810;51.178;3.878;2023-04-24T07:06:06;10.00;99.90
23283;DHT22;11810;51.178;3.878;2023-04-24T07:08:32;10.10;99.90
23283;DHT22;11810;51.178;3.878;2023-04-24T07:10:59;10.10;99.90
23283;DHT22;11810;51.178;3.878;2023-04-24T07:13:25;10.00;99.90
23283;DHT22;11810;51.178;3.878;2023-04-24T07:15:53;9.70;99.90
23283;DHT22;11810;51.178;3.878;2023-04-24T07:18:21;9.60;99.90
23283;DHT22;11810;51.178;3.878;2023-04-24T07:20:47;9.50;99.90
23283;DHT22;11810;51.178;3.878;2023-04-24T07:23:16;9.40;99.90
23283;DHT22;11810;51.178;3.878;2023-04-24T07:25:42;9.30;99.90
23283;DHT22;11810;51.178;3.878;2023-04-24T07:28:08;9.30;99.90
23283;DHT22;11810;51.178;3.878;2023-04-24T07:30:34;9.40;99.90
23283;DHT22;11810;51.178;3.878;2023-04-24T07:33:00;9.30;99.90
23283;DHT22;11810;51.178;3.878;2023-04-24T07:35:26;9.40;99.90
23283;DHT22;11810;51.178;3.878;2023-04-24T07:37:55;9.60;99.90
23283;DHT22;11810;51.178;3.878;2023-04-24T07:40:22;9.80;99.90
23283;DHT22;11810;51.178;3.878;2023-04-24T07:42:48;10.00;99.90
23283;DHT22;11810;51.178;3.878;2023-04-24T07:45:14;10.10;99.90
23283;DHT22;11810;51.178;3.878;2023-04-24T07:47:44;10.40;99.90
23283;DHT22;11810;51.178;3.878;2023-04-24T07:50:12;10.90;99.90
23283;DHT22;11810;51.178;3.878;2023-04-24T07:52:38;11.90;99.90
23283;DHT22;11810;51.178;3.878;2023-04-24T07:55:04;11.90;99.90
23283;DHT22;11810;51.178;3.878;2023-04-24T07:57:30;11.30;99.90
23283;DHT22;11810;51.178;3.878;2023-04-24T07:59:56;11.10;99.90
23283;DHT22;11810;51.178;3.878;2023-04-24T08:02:22;10.70;99.90
23283;DHT22;11810;51.178;3.878;2023-04-24T08:04:52;10.50;99.90
23283;DHT22;11810;51.178;3.878;2023-04-24T08:07:19;9.90;99.90
23283;DHT22;11810;51.178;3.878;2023-04-24T08:09:45;9.60;99.90
23283;DHT22;11810;51.178;3.878;2023-04-24T08:12:11;9.50;99.90
23283;DHT22;11810;51.178;3.878;2023-04-24T08:14:37;9.70;99.90
23283;DHT22;11810;51.178;3.878;2023-04-24T08:17:03;9.90;99.90
23283;DHT22;11810;51.178;3.878;2023-04-24T08:19:29;10.00;99.90
23283;DHT22;11810;51.178;3.878;2023-04-24T08:21:55;10.10;99.90
23283;DHT22;11810;51.178;3.878;2023-04-24T08:24:22;10.00;99.90
23283;DHT22;11810;51.178;3.878;2023-04-24T08:26:48;9.90;99.90
23283;DHT22;11810;51.178;3.878;2023-04-24T08:29:19;9.90;99.90
23283;DHT22;11810;51.178;3.878;2023-04-24T08:31:45;10.70;99.90
23283;DHT22;11810;51.178;3.878;2023-04-24T08:34:11;11.50;99.90
23283;DHT22;11810;51.178;3.878;2023-04-24T08:36:37;12.20;99.90
23283;DHT22;11810;51.178;3.878;2023-04-24T08:39:03;12.70;99.90
23283;DHT22;11810;51.178;3.878;2023-04-24T08:41:30;13.30;99.90
23283;DHT22;11810;51.178;3.878;2023-04-24T08:43:56;13.10;99.90
23283;DHT22;11810;51.178;3.878;2023-04-24T08:46:24;13.70;99.90
23283;DHT22;11810;51.178;3.878;2023-04-24T08:48:52;13.40;99.90
23283;DHT22;11810;51.178;3.878;2023-04-24T08:51:18;12.50;99.90
23283;DHT22;11810;51.178;3.878;2023-04-24T08:53:46;11.80;99.90
23283;DHT22;11810;51.178;3.878;2023-04-24T08:56:13;11.70;99.90
23283;DHT22;11810;51.178;3.878;2023-04-24T08:58:39;12.50;99.90
23283;DHT22;11810;51.178;3.878;2023-04-24T09:01:06;13.30;99.90
23283;DHT22;11810;51.178;3.878;2023-04-24T09:03:33;13.40;99.90
23283;DHT22;11810;51.178;3.878;2023-04-24T09:06:00;12.70;99.90
23283;DHT22;11810;51.178;3.878;2023-04-24T09:08:27;12.10;99.90
23283;DHT22;11810;51.178;3.878;2023-04-24T09:10:54;11.90;99.90
23283;DHT22;11810;51.178;3.878;2023-04-24T09:13:20;11.70;99.90
23283;DHT22;11810;51.178;3.878;2023-04-24T09:15:46;11.60;99.90
23283;DHT22;11810;51.178;3.878;2023-04-24T09:18:12;11.90;99.90
23283;DHT22;11810;51.178;3.878;2023-04-24T09:21:01;11.80;99.90
23283;DHT22;11810;51.178;3.878;2023-04-24T09:23:28;11.50;99.90
23283;DHT22;11810;51.178;3.878;2023-04-24T09:25:56;11.20;99.90
23283;DHT22;11810;51.178;3.878;2023-04-24T09:28:51;11.10;99.90
23283;DHT22;11810;51.178;3.878;2023-04-24T09:31:19;12.30;99.90
23283;DHT22;11810;51.178;3.878;2023-04-24T09:34:04;12.90;99.90
23283;DHT22;11810;51.178;3.878;2023-04-24T09:36:38;12.80;99.90
23283;DHT22;11810;51.178;3.878;2023-04-24T09:39:12;12.50;99.90
23283;DHT22;11810;51.178;3.878;2023-04-24T09:41:49;12.30;99.90
23283;DHT22;11810;51.178;3.878;2023-04-24T09:44:15;12.10;99.90
23283;DHT22;11810;51.178;3.878;2023-04-24T09:46:44;11.80;99.90
23283;DHT22;11810;51.178;3.878;2023-04-24T09:49:21;11.70;99.90
23283;DHT22;11810;51.178;3.878;2023-04-24T09:51:47;11.50;99.90
23283;DHT22;11810;51.178;3.878;2023-04-24T09:54:15;11.50;99.90
23283;DHT22;11810;51.178;3.878;2023-04-24T09:56:45;11.80;99.90
23283;DHT22;11810;51.178;3.878;2023-04-24T09:59:13;12.00;99.90
23283;DHT22;11810;51.178;3.878;2023-04-24T10:01:39;11.90;99.90
23283;DHT22;11810;51.178;3.878;2023-04-24T10:04:19;11.70;99.90
23283;DHT22;11810;51.178;3.878;2023-04-24T10:06:46;11.60;99.90
23283;DHT22;11810;51.178;3.878;2023-04-24T10:09:12;11.20;99.90
23283;DHT22;11810;51.178;3.878;2023-04-24T10:11:42;11.00;99.90
23283;DHT22;11810;51.178;3.878;2023-04-24T10:14:15;11.40;99.90
23283;DHT22;11810;51.178;3.878;2023-04-24T10:16:42;11.60;99.90
23283;DHT22;11810;51.178;3.878;2023-04-24T10:19:09;11.60;99.90
23283;DHT22;11810;51.178;3.878;2023-04-24T10:21:35;11.50;99.90
23283;DHT22;11810;51.178;3.878;2023-04-24T10:24:05;11.40;99.90
23283;DHT22;11810;51.178;3.878;2023-04-24T10:26:33;11.60;99.90
23283;DHT22;11810;51.178;3.878;2023-04-24T10:28:59;11.70;99.90
23283;DHT22;11810;51.178;3.878;2023-04-24T10:31:27;11.60;99.90
23283;DHT22;11810;51.178;3.878;2023-04-24T10:33:53;11.90;99.90
23283;DHT22;11810;51.178;3.878;2023-04-24T10:36:22;12.70;99.90
23283;DHT22;11810;51.178;3.878;2023-04-24T10:38:50;14.00;99.90
23283;DHT22;11810;51.178;3.878;2023-04-24T10:41:18;14.70;99.90
23283;DHT22;11810;51.178;3.878;2023-04-24T10:44:04;14.80;99.90
23283;DHT22;11810;51.178;3.878;2023-04-24T10:46:31;14.60;99.90
23283;DHT22;11810;51.178;3.878;2023-04-24T10:48:57;13.90;99.90
23283;DHT22;11810;51.178;3.878;2023-04-24T10:51:24;13.00;99.90
23283;DHT22;11810;51.178;3.878;2023-04-24T10:54:23;12.60;99.90
23283;DHT22;11810;51.178;3.878;2023-04-24T10:56:50;13.10;99.90
23283;DHT22;11810;51.178;3.878;2023-04-24T10:59:35;14.60;99.90
23283;DHT22;11810;51.178;3.878;2023-04-24T11:02:03;14.40;99.90
23283;DHT22;11810;51.178;3.878;2023-04-24T11:04:32;13.80;99.90
23283;DHT22;11810;51.178;3.878;2023-04-24T11:06:59;14.60;99.90
23283;DHT22;11810;51.178;3.878;2023-04-24T11:09:30;16.20;99.90
23283;DHT22;11810;51.178;3.878;2023-04-24T11:12:10;16.60;99.90
23283;DHT22;11810;51.178;3.878;2023-04-24T11:17:35;15.70;99.90
23283;DHT22;11810;51.178;3.878;2023-04-24T11:20:10;15.80;99.90
23283;DHT22;11810;51.178;3.878;2023-04-24T11:22:38;15.40;99.90
23283;DHT22;11810;51.178;3.878;2023-04-24T11:25:06;15.40;99.90
23283;DHT22;11810;51.178;3.878;2023-04-24T11:27:43;15.30;99.90
23283;DHT22;11810;51.178;3.878;2023-04-24T11:30:10;15.80;99.90
23283;DHT22;11810;51.178;3.878;2023-04-24T11:32:37;16.20;99.90
23283;DHT22;11810;51.178;3.878;2023-04-24T11:37:41;15.50;99.90
23283;DHT22;11810;51.178;3.878;2023-04-24T11:40:11;15.60;99.90
23283;DHT22;11810;51.178;3.878;2023-04-24T11:42:40;16.10;99.90
23283;DHT22;11810;51.178;3.878;2023-04-24T11:45:17;16.60;99.90
23283;DHT22;11810;51.178;3.878;2023-04-24T11:47:43;16.70;99.90
23283;DHT22;11810;51.178;3.878;2023-04-24T11:50:14;16.70;99.90
23283;DHT22;11810;51.178;3.878;2023-04-24T11:52:42;16.00;99.90
23283;DHT22;11810;51.178;3.878;2023-04-24T11:55:29;17.00;99.90
23283;DHT22;11810;51.178;3.878;2023-04-24T11:57:57;17.60;99.90
23283;DHT22;11810;51.178;3.878;2023-04-24T12:00:29;18.10;99.90
23283;DHT22;11810;51.178;3.878;2023-04-24T12:03:09;18.50;99.90
23283;DHT22;11810;51.178;3.878;2023-04-24T12:05:35;18.30;99.90
23283;DHT22;11810;51.178;3.878;2023-04-24T12:08:02;17.40;99.90
23283;DHT22;11810;51.178;3.878;2023-04-24T12:10:29;17.70;99.90
23283;DHT22;11810;51.178;3.878;2023-04-24T12:12:57;17.70;99.90
23283;DHT22;11810;51.178;3.878;2023-04-24T12:15:24;16.90;99.90
23283;DHT22;11810;51.178;3.878;2023-04-24T12:17:51;16.40;99.90
23283;DHT22;11810;51.178;3.878;2023-04-24T12:20:20;16.10;99.90
23283;DHT22;11810;51.178;3.878;2023-04-24T12:22:49;16.70;99.90
23283;DHT22;11810;51.178;3.878;2023-04-24T12:25:17;16.70;99.90
23283;DHT22;11810;51.178;3.878;2023-04-24T12:27:44;17.00;99.90
23283;DHT22;11810;51.178;3.878;2023-04-24T12:30:13;17.20;99.90
23283;DHT22;11810;51.178;3.878;2023-04-24T12:32:46;16.50;99.90
23283;DHT22;11810;51.178;3.878;2023-04-24T12:35:14;16.40;99.90
23283;DHT22;11810;51.178;3.878;2023-04-24T12:37:44;15.80;99.90
23283;DHT22;11810;51.178;3.878;2023-04-24T12:40:11;15.50;99.90
23283;DHT22;11810;51.178;3.878;2023-04-24T12:42:48;15.90;99.90
23283;DHT22;11810;51.178;3.878;2023-04-24T12:45:16;16.40;99.90
23283;DHT22;11810;51.178;3.878;2023-04-24T12:47:44;16.60;99.90
23283;DHT22;11810;51.178;3.878;2023-04-24T12:50:12;17.20;99.90
23283;DHT22;11810;51.178;3.878;2023-04-24T12:52:38;17.70;99.90
23283;DHT22;11810;51.178;3.878;2023-04-24T12:55:05;17.30;99.90
23283;DHT22;11810;51.178;3.878;2023-04-24T12:57:35;17.00;99.90
23283;DHT22;11810;51.178;3.878;2023-04-24T13:00:01;16.10;99.90
23283;DHT22;11810;51.178;3.878;2023-04-24T13:02:29;15.80;99.90
23283;DHT22;11810;51.178;3.878;2023-04-24T13:04:56;15.70;99.90
23283;DHT22;11810;51.178;3.878;2023-04-24T13:07:23;14.90;99.90
23283;DHT22;11810;51.178;3.878;2023-04-24T13:09:50;14.40;99.90
23283;DHT22;11810;51.178;3.878;2023-04-24T13:12:16;14.30;99.90
23283;DHT22;11810;51.178;3.878;2023-04-24T13:14:42;15.10;99.90
23283;DHT22;11810;51.178;3.878;2023-04-24T13:17:08;15.90;99.90
23283;DHT22;11810;51.178;3.878;2023-04-24T13:19:39;16.30;99.90
23283;DHT22;11810;51.178;3.878;2023-04-24T13:22:05;15.20;99.90
23283;DHT22;11810;51.178;3.878;2023-04-24T13:24:32;14.90;99.90
23283;DHT22;11810;51.178;3.878;2023-04-24T13:26:58;15.40;99.90
23283;DHT22;11810;51.178;3.878;2023-04-24T13:29:26;16.20;99.90
23283;DHT22;11810;51.178;3.878;2023-04-24T13:31:53;17.10;99.90
23283;DHT22;11810;51.178;3.878;2023-04-24T13:34:25;17.40;99.90
23283;DHT22;11810;51.178;3.878;2023-04-24T13:36:55;17.70;99.90
23283;DHT22;11810;51.178;3.878;2023-04-24T13:39:23;17.70;99.90
23283;DHT22;11810;51.178;3.878;2023-04-24T13:41:49;17.90;99.90
23283;DHT22;11810;51.178;3.878;2023-04-24T13:44:16;17.50;99.90
23283;DHT22;11810;51.178;3.878;2023-04-24T13:46:44;17.20;99.90
23283;DHT22;11810;51.178;3.878;2023-04-24T13:49:12;17.40;99.90
23283;DHT22;11810;51.178;3.878;2023-04-24T13:51:38;17.00;99.90
23283;DHT22;11810;51.178;3.878;2023-04-24T13:54:05;16.60;99.90
23283;DHT22;11810;51.178;3.878;2023-04-24T13:56:31;16.40;99.90
23283;DHT22;11810;51.178;3.878;2023-04-24T13:58:57;15.60;99.90
23283;DHT22;11810;51.178;3.878;2023-04-24T14:01:23;15.70;99.90
23283;DHT22;11810;51.178;3.878;2023-04-24T14:03:53;15.60;99.90
23283;DHT22;11810;51.178;3.878;2023-04-24T14:06:20;15.60;99.90
23283;DHT22;11810;51.178;3.878;2023-04-24T14:08:47;14.80;99.90
23283;DHT22;11810;51.178;3.878;2023-04-24T14:11:13;15.00;99.90
23283;DHT22;11810;51.178;3.878;2023-04-24T14:13:43;14.80;99.90
23283;DHT22;11810;51.178;3.878;2023-04-24T14:16:10;14.90;99.90
23283;DHT22;11810;51.178;3.878;2023-04-24T14:18:37;15.10;99.90
23283;DHT22;11810;51.178;3.878;2023-04-24T14:21:06;15.40;99.90
23283;DHT22;11810;51.178;3.878;2023-04-24T14:23:32;15.80;99.90
23283;DHT22;11810;51.178;3.878;2023-04-24T14:25:58;16.00;99.90
23283;DHT22;11810;51.178;3.878;2023-04-24T14:28:25;16.10;99.90
23283;DHT22;11810;51.178;3.878;2023-04-24T14:30:52;16.80;99.90
23283;DHT22;11810;51.178;3.878;2023-04-24T14:33:18;17.20;99.90
23283;DHT22;11810;51.178;3.878;2023-04-24T14:35:44;17.80;99.90
23283;DHT22;11810;51.178;3.878;2023-04-24T14:38:10;17.40;99.90
23283;DHT22;11810;51.178;3.878;2023-04-24T14:40:37;17.20;99.90
23283;DHT22;11810;51.178;3.878;2023-04-24T14:43:03;17.20;99.90
23283;DHT22;11810;51.178;3.878;2023-04-24T14:45:29;17.20;99.90
23283;DHT22;11810;51.178;3.878;2023-04-24T14:47:55;17.60;99.90
23283;DHT22;11810;51.178;3.878;2023-04-24T14:50:22;17.80;99.90
23283;DHT22;11810;51.178;3.878;2023-04-24T14:52:48;17.30;99.90
23283;DHT22;11810;51.178;3.878;2023-04-24T14:55:14;17.10;99.90
23283;DHT22;11810;51.178;3.878;2023-04-24T14:57:40;16.70;99.90
23283;DHT22;11810;51.178;3.878;2023-04-24T15:00:07;16.30;99.90
23283;DHT22;11810;51.178;3.878;2023-04-24T15:02:34;16.20;99.90
23283;DHT22;11810;51.178;3.878;2023-04-24T15:05:03;15.70;99.90
23283;DHT22;11810;51.178;3.878;2023-04-24T15:07:29;15.30;99.90
23283;DHT22;11810;51.178;3.878;2023-04-24T15:09:56;15.00;99.90
23283;DHT22;11810;51.178;3.878;2023-04-24T15:12:22;14.70;99.90
23283;DHT22;11810;51.178;3.878;2023-04-24T15:14:48;14.70;99.90
23283;DHT22;11810;51.178;3.878;2023-04-24T15:17:14;14.70;99.90
23283;DHT22;11810;51.178;3.878;2023-04-24T15:19:40;14.50;99.90
23283;DHT22;11810;51.178;3.878;2023-04-24T15:22:06;14.70;99.90
23283;DHT22;11810;51.178;3.878;2023-04-24T15:24:32;14.70;99.90
23283;DHT22;11810;51.178;3.878;2023-04-24T15:26:59;14.70;99.90
23283;DHT22;11810;51.178;3.878;2023-04-24T15:29:25;14.30;99.90
23283;DHT22;11810;51.178;3.878;2023-04-24T15:31:52;14.90;99.90
23283;DHT22;11810;51.178;3.878;2023-04-24T15:34:18;15.30;99.90
23283;DHT22;11810;51.178;3.878;2023-04-24T15:36:44;15.60;99.90
23283;DHT22;11810;51.178;3.878;2023-04-24T15:39:10;15.50;99.90
23283;DHT22;11810;51.178;3.878;2023-04-24T15:41:36;15.20;99.90
23283;DHT22;11810;51.178;3.878;2023-04-24T15:44:02;14.40;99.90
23283;DHT22;11810;51.178;3.878;2023-04-24T15:46:28;14.00;99.90